Time;durP1;ratioP1;P1;durP2;ratioP2;P2;SDS_P1;SDS_P2;PMS_P1;PMS_P2;Temp;Humidity;BMP_temperature;BMP_pressure;BME280_temperature;BME280_humidity;BME280_pressure;Samples;Min_cycle;Max_cycle;Signal;HPM_P1;HPM_P2
2021/10/11 00:02:04;;;;;;;4.47;4.07;;;;;;;11.09;100.00;95203.19;5014224;28;20454;-77
2021/10/11 00:04:30;;;;;;;4.00;3.70;;;;;;;11.19;100.00;95198.00;5049324;28;20806;-78
2021/10/11 00:06:59;;;;;;;4.63;4.23;;;;;;;11.24;100.00;95197.63;5049047;28;20445;-77
2021/10/11 00:09:26;;;;;;;7.00;4.60;;;;;;;11.34;100.00;95195.91;5049255;27;20465;-77
2021/10/11 02:02:33;;;;;;;5.27;4.77;;;;;;;11.82;100.00;95096.34;5030988;28;20540;-81
2021/10/11 02:05:00;;;;;;;7.00;6.17;;;;;;;11.71;100.00;95093.78;5030725;28;20805;-82
2021/10/11 02:07:27;;;;;;;6.77;6.03;;;;;;;11.74;100.00;95093.50;5030246;28;20450;-82
2021/10/11 02:09:53;;;;;;;4.67;4.27;;;;;;;11.75;100.00;95089.91;5030058;28;20461;-83
2021/10/11 02:12:20;;;;;;;5.57;5.13;;;;;;;11.76;100.00;95095.03;4979760;28;20969;-83
2021/10/11 02:14:48;;;;;;;5.57;5.07;;;;;;;11.79;100.00;95091.34;5030685;28;20487;-83
2021/10/11 02:17:15;;;;;;;5.87;4.53;;;;;;;11.49;100.00;95086.88;5030312;28;20457;-82
2021/10/11 02:19:44;;;;;;;4.93;4.40;;;;;;;11.56;100.00;95088.03;5030491;28;20450;-83
2021/10/11 02:22:11;;;;;;;12.53;4.10;;;;;;;11.45;100.00;95078.44;5030467;28;20443;-83
2021/10/11 02:24:38;;;;;;;3.13;2.87;;;;;;;11.44;100.00;95083.81;5030401;28;20450;-82
2021/10/11 02:27:05;;;;;;;6.27;5.53;;;;;;;11.20;100.00;95078.00;5029924;28;20461;-83
2021/10/11 02:29:33;;;;;;;3.40;3.10;;;;;;;11.18;100.00;95080.78;5030396;28;20447;-82
2021/10/11 02:32:00;;;;;;;2.97;2.77;;;;;;;11.31;100.00;95072.69;5029992;28;20578;-82
2021/10/11 02:34:27;;;;;;;3.50;3.20;;;;;;;11.34;100.00;95075.06;5030547;28;20798;-83
2021/10/11 02:36:55;;;;;;;3.63;3.33;;;;;;;11.36;100.00;95073.97;5030038;28;20453;-83
2021/10/11 02:39:22;;;;;;;3.53;3.23;;;;;;;11.44;100.00;95068.06;5029796;28;20443;-83
2021/10/11 02:41:49;;;;;;;4.43;4.13;;;;;;;11.46;100.00;95068.75;5029778;28;20573;-83
2021/10/11 02:44:16;;;;;;;4.00;3.70;;;;;;;11.47;100.00;95067.78;5030105;28;20461;-83
2021/10/11 02:46:43;;;;;;;10.63;9.80;;;;;;;11.45;100.00;95067.09;5030019;28;20451;-83
2021/10/11 02:49:10;;;;;;;4.70;4.30;;;;;;;11.39;100.00;95065.00;5030331;28;20489;-82
2021/10/11 02:51:37;;;;;;;4.33;3.97;;;;;;;11.42;100.00;95064.72;5030203;28;20457;-82
2021/10/11 02:54:05;;;;;;;5.10;4.70;;;;;;;11.42;100.00;95062.09;5029534;28;20451;-82
2021/10/11 02:56:32;;;;;;;5.70;5.30;;;;;;;11.51;100.00;95057.84;4978754;28;20518;-82
2021/10/11 02:58:59;;;;;;;4.83;4.43;;;;;;;11.56;100.00;95053.84;4994969;28;20931;-83
2021/10/11 03:01:26;;;;;;;3.30;3.10;;;;;;;11.58;100.00;95056.38;5027820;28;20521;-83
2021/10/11 03:03:53;;;;;;;3.17;2.90;;;;;;;11.64;100.00;95059.31;5016480;28;20464;-83
2021/10/11 03:06:20;;;;;;;3.97;3.67;;;;;;;11.69;100.00;95053.66;5016333;28;20532;-82
2021/10/11 03:08:47;;;;;;;3.50;3.20;;;;;;;11.74;100.00;95054.06;5016297;28;20447;-82
2021/10/11 03:11:15;;;;;;;3.17;2.97;;;;;;;11.73;100.00;95055.88;5016292;28;20444;-82
2021/10/11 03:58:12;;;;;;;6.60;5.83;;;;;;;11.34;100.00;95012.84;5090374;27;20580;-80
2021/10/11 04:00:39;;;;;;;7.40;5.97;;;;;;;11.41;100.00;95013.16;5070231;28;20454;-79
2021/10/11 04:03:07;;;;;;;9.17;8.27;;;;;;;11.50;100.00;95012.34;5070343;28;20452;-80
2021/10/11 04:05:34;;;;;;;8.10;7.30;;;;;;;11.57;100.00;95008.25;5051352;28;20512;-81
2021/10/11 04:08:06;;;;;;;15.50;9.73;;;;;;;11.64;100.00;95000.66;5069982;28;20437;-82
2021/10/11 04:10:36;;;;;;;10.50;9.43;;;;;;;11.66;100.00;95012.69;5070007;28;20453;-81
2021/10/11 04:13:05;;;;;;;10.07;8.67;;;;;;;11.62;100.00;95000.78;5069723;28;20453;-81
2021/10/11 04:15:34;;;;;;;9.97;8.10;;;;;;;11.58;100.00;95002.03;5069826;28;20450;-83
2021/10/11 04:18:00;;;;;;;6.57;5.97;;;;;;;11.47;100.00;95004.72;5069772;28;20836;-81
2021/10/11 04:20:27;;;;;;;8.20;6.13;;;;;;;11.37;100.00;95007.31;5069443;28;20452;-81
2021/10/11 04:22:54;;;;;;;5.37;4.87;;;;;;;11.33;100.00;94995.41;5069763;28;20450;-80
2021/10/11 04:25:21;;;;;;;6.20;5.30;;;;;;;11.36;100.00;95000.41;5069536;28;20452;-81
2021/10/11 04:27:48;;;;;;;5.73;5.20;;;;;;;11.43;100.00;94998.91;5069441;28;20488;-82
2021/10/11 04:30:15;;;;;;;10.73;4.67;;;;;;;11.43;100.00;94990.19;5069172;28;20442;-81
2021/10/11 04:32:43;;;;;;;5.87;5.37;;;;;;;11.23;100.00;94993.69;5034785;28;20925;-81
2021/10/11 04:35:11;;;;;;;4.80;4.10;;;;;;;11.12;100.00;95002.50;5034806;28;20449;-83
2021/10/11 04:37:40;;;;;;;4.97;4.45;;;;;;;11.11;100.00;94998.22;5069670;28;20937;-81
2021/10/11 04:40:08;;;;;;;5.53;5.03;;;;;;;11.10;100.00;95002.63;5069758;28;20668;-83
2021/10/11 04:42:35;;;;;;;5.03;4.00;;;;;;;11.11;100.00;94996.41;5070490;28;20896;-82
2021/10/11 04:45:02;;;;;;;4.87;3.90;;;;;;;11.05;100.00;94996.94;5075888;28;21000;-83
2021/10/11 04:47:29;;;;;;;4.87;3.53;;;;;;;11.05;100.00;94996.13;5069904;28;20491;-83
2021/10/11 04:49:57;;;;;;;4.60;4.23;;;;;;;11.03;100.00;94992.78;5069457;28;20921;-82
2021/10/11 04:52:24;;;;;;;4.33;3.93;;;;;;;11.04;100.00;94997.09;5069126;28;20815;-81
2021/10/11 04:54:51;;;;;;;4.10;3.70;;;;;;;10.96;100.00;94994.25;5069312;28;20801;-82
2021/10/11 04:57:18;;;;;;;4.20;3.90;;;;;;;10.72;100.00;94994.53;5060616;28;21601;-81
2021/10/11 04:59:45;;;;;;;4.80;4.40;;;;;;;10.77;100.00;94987.13;5076244;28;20429;-83
2021/10/11 05:02:12;;;;;;;4.40;4.00;;;;;;;10.79;100.00;94995.69;5076202;28;20447;-83
2021/10/11 05:04:38;;;;;;;5.60;5.10;;;;;;;10.66;100.00;94995.03;5076040;28;20441;-82
2021/10/11 05:07:07;;;;;;;4.47;3.83;;;;;;;10.63;100.00;95000.53;5075659;28;20836;-82
2021/10/11 05:09:34;;;;;;;4.63;4.20;;;;;;;10.77;100.00;94984.50;5076149;28;20520;-83
2021/10/11 05:12:01;;;;;;;7.17;4.97;;;;;;;10.82;100.00;94987.56;5075829;28;20445;-83
2021/10/11 05:14:28;;;;;;;4.87;4.47;;;;;;;10.75;100.00;94983.78;5075829;28;20447;-82
2021/10/11 05:16:55;;;;;;;6.83;4.90;;;;;;;10.80;100.00;94989.47;5076020;28;20441;-82
2021/10/11 05:19:25;;;;;;;5.67;5.20;;;;;;;10.78;100.00;94992.22;5040285;28;20449;-80
2021/10/11 05:21:52;;;;;;;4.83;4.43;;;;;;;10.84;100.00;95001.38;5074525;28;20445;-82
2021/10/11 05:24:23;;;;;;;6.00;5.23;;;;;;;10.93;100.00;94997.13;5075523;28;20913;-81
2021/10/11 05:26:51;;;;;;;5.33;4.83;;;;;;;11.01;100.00;95005.22;5075237;28;20491;-82
2021/10/11 05:29:18;;;;;;;4.40;4.10;;;;;;;10.89;100.00;94990.47;5075938;28;20452;-82
2021/10/11 05:31:45;;;;;;;4.30;4.00;;;;;;;10.88;100.00;95000.16;5075367;28;20441;-81
2021/10/11 05:34:12;;;;;;;5.80;5.13;;;;;;;10.93;100.00;94991.88;5075027;28;20438;-81
2021/10/11 05:36:39;;;;;;;5.40;4.90;;;;;;;10.92;100.00;94992.84;5075318;28;20206;-82
2021/10/11 05:39:06;;;;;;;4.60;4.30;;;;;;;10.78;100.00;94994.84;5075692;28;20452;-80
2021/10/11 05:41:35;;;;;;;5.57;4.53;;;;;;;10.85;100.00;94995.16;5056968;28;20447;-82
2021/10/11 05:44:02;;;;;;;7.53;6.03;;;;;;;10.79;100.00;94999.16;5040119;28;20806;-81
2021/10/11 05:46:28;;;;;;;7.70;5.63;;;;;;;10.81;100.00;94996.38;5075105;28;20485;-81
2021/10/11 05:48:55;;;;;;;7.30;6.53;;;;;;;10.86;100.00;95000.28;5074168;28;20936;-82
2021/10/11 05:51:22;;;;;;;6.80;5.50;;;;;;;10.77;100.00;95001.06;5073395;28;20448;-81
2021/10/11 05:53:49;;;;;;;6.17;5.67;;;;;;;10.85;100.00;95001.25;5074018;28;20936;-82
2021/10/11 05:56:17;;;;;;;5.43;4.90;;;;;;;10.95;100.00;94996.03;5073866;28;20483;-81
2021/10/11 05:58:45;;;;;;;8.13;5.97;;;;;;;10.89;100.00;95001.81;5073939;28;20528;-83
2021/10/11 06:01:12;;;;;;;7.40;5.27;;;;;;;10.87;100.00;94998.50;5073973;28;20460;-82
2021/10/11 06:03:39;;;;;;;5.50;5.10;;;;;;;10.81;100.00;94997.22;5073732;28;20879;-82
2021/10/11 06:06:06;;;;;;;5.60;5.20;;;;;;;10.88;100.00;94996.69;5038141;28;20430;-82
2021/10/11 06:08:33;;;;;;;8.40;6.87;;;;;;;10.80;100.00;94997.34;5074196;28;20444;-80
2021/10/11 06:11:00;;;;;;;6.60;6.10;;;;;;;10.80;100.00;94998.19;5073788;28;20801;-81
2021/10/11 06:13:27;;;;;;;6.63;6.07;;;;;;;10.83;100.00;95008.41;5074841;28;20437;-82
2021/10/11 06:15:55;;;;;;;6.07;5.57;;;;;;;10.93;100.00;95003.22;5039695;28;20516;-82
2021/10/11 06:18:22;;;;;;;10.47;6.00;;;;;;;10.88;100.00;94996.69;5039354;28;20437;-82
2021/10/11 06:20:49;;;;;;;6.17;5.67;;;;;;;10.96;100.00;95002.97;5074185;28;21360;-82
2021/10/11 06:23:16;;;;;;;8.10;6.10;;;;;;;11.05;100.00;95006.63;5038680;28;20438;-81
2021/10/11 06:25:43;;;;;;;11.60;5.73;;;;;;;10.96;100.00;95007.38;5073633;28;20449;-82
2021/10/11 06:28:11;;;;;;;5.97;5.47;;;;;;;11.05;100.00;95012.69;5073153;28;20491;-81
2021/10/11 06:30:38;;;;;;;10.73;7.57;;;;;;;11.03;100.00;95014.63;5073103;28;20451;-82
2021/10/11 06:33:06;;;;;;;5.90;5.40;;;;;;;11.08;100.00;95007.19;5073101;28;20436;-81
2021/10/11 06:35:33;;;;;;;5.50;4.97;;;;;;;11.01;100.00;95005.22;5073143;28;20941;-81
2021/10/11 06:38:00;;;;;;;5.47;5.00;;;;;;;10.94;100.00;95010.13;5073342;28;20456;-82
2021/10/11 06:40:27;;;;;;;6.00;5.40;;;;;;;11.01;100.00;95015.72;5072867;28;20455;-84
2021/10/11 06:42:54;;;;;;;7.00;6.30;;;;;;;11.06;100.00;95008.28;5073526;28;20445;-82
2021/10/11 06:45:21;;;;;;;6.93;6.32;;;;;;;11.15;100.00;95010.94;5071742;28;20944;-81
2021/10/11 06:47:48;;;;;;;8.47;6.30;;;;;;;11.20;100.00;95015.81;5037624;28;20225;-81
2021/10/11 06:50:16;;;;;;;8.50;7.70;;;;;;;11.26;100.00;95006.56;5073672;28;20952;-81
2021/10/11 06:52:43;;;;;;;10.60;8.20;;;;;;;11.29;100.00;94999.28;5038338;28;20433;-81
2021/10/11 06:55:10;;;;;;;6.67;6.17;;;;;;;11.26;100.00;95001.31;5074223;28;20528;-81
2021/10/11 06:57:37;;;;;;;7.40;6.73;;;;;;;11.27;100.00;95014.31;5073691;28;20487;-81
2021/10/11 07:00:05;;;;;;;7.03;6.43;;;;;;;11.25;100.00;95018.03;5038160;28;20947;-81
2021/10/11 07:02:32;;;;;;;7.97;6.70;;;;;;;11.22;100.00;95013.03;5006166;28;20441;-81
2021/10/11 07:05:08;;;;;;;7.17;6.47;;;;;;;11.29;100.00;95009.78;5073543;28;20528;-82
2021/10/11 07:07:37;;;;;;;6.87;6.20;;;;;;;11.46;100.00;95006.53;5073524;28;20523;-81
2021/10/11 07:10:04;;;;;;;5.93;5.43;;;;;;;11.30;100.00;95010.63;5073866;28;20893;-81
2021/10/11 07:12:31;;;;;;;8.40;6.57;;;;;;;11.46;100.00;95001.25;5038407;28;20447;-80
2021/10/11 07:14:58;;;;;;;8.80;7.13;;;;;;;11.48;100.00;95009.84;5073707;28;20453;-81
2021/10/11 07:17:25;;;;;;;7.80;6.87;;;;;;;11.56;100.00;95006.53;5073624;28;20445;-81
2021/10/11 07:19:52;;;;;;;9.37;8.47;;;;;;;11.64;100.00;95001.47;5072718;28;20949;-80
2021/10/11 07:22:20;;;;;;;10.20;8.43;;;;;;;11.68;100.00;95004.66;5073834;28;20452;-81
2021/10/11 07:24:49;;;;;;;10.40;8.50;;;;;;;11.64;100.00;95004.09;5038282;28;20445;-81
2021/10/11 07:27:16;;;;;;;10.50;9.40;;;;;;;11.70;100.00;94997.47;5038198;28;20491;-81
2021/10/11 07:29:43;;;;;;;8.17;7.00;;;;;;;11.73;100.00;95002.47;5073251;28;20445;-81
2021/10/11 07:32:10;;;;;;;6.53;5.63;;;;;;;11.76;100.00;94997.75;5073899;28;20436;-81
2021/10/11 07:34:37;;;;;;;6.60;6.00;;;;;;;11.81;100.00;94993.94;5073415;28;20537;-81
2021/10/11 07:37:04;;;;;;;6.67;6.13;;;;;;;11.75;100.00;94993.47;5073086;28;20457;-81
2021/10/11 07:39:32;;;;;;;6.37;5.80;;;;;;;11.75;100.00;95004.00;5073590;28;20807;-81
2021/10/11 07:42:00;;;;;;;6.90;6.40;;;;;;;11.84;100.00;94994.47;5073547;28;20449;-81
2021/10/11 07:44:27;;;;;;;8.30;7.60;;;;;;;11.89;100.00;94987.06;5073201;28;20452;-81
2021/10/11 07:46:54;;;;;;;6.23;5.73;;;;;;;12.02;100.00;94994.66;5073621;28;20542;-81
2021/10/11 07:49:22;;;;;;;6.23;5.73;;;;;;;12.09;100.00;94993.97;5073600;28;20441;-82
2021/10/11 07:51:49;;;;;;;9.03;8.20;;;;;;;12.18;100.00;94996.78;5073249;28;20446;-80
2021/10/11 07:54:18;;;;;;;8.03;7.17;;;;;;;12.22;100.00;94988.47;5073310;28;20429;-81
2021/10/11 07:56:45;;;;;;;6.07;5.47;;;;;;;12.31;100.00;94987.63;5073240;28;20477;-81
2021/10/11 07:59:14;;;;;;;6.97;6.40;;;;;;;12.43;100.00;94990.13;5073051;28;20453;-81
2021/10/11 08:01:41;;;;;;;6.10;5.50;;;;;;;12.50;100.00;94985.97;5072761;28;20449;-82
2021/10/11 08:04:08;;;;;;;9.60;6.30;;;;;;;12.55;100.00;94989.03;5073126;28;20463;-81
2021/10/11 08:06:35;;;;;;;12.60;11.27;;;;;;;12.56;100.00;94980.97;5073099;28;20449;-81
2021/10/11 08:09:02;;;;;;;8.20;7.50;;;;;;;12.60;100.00;94984.16;5072706;28;20477;-82
2021/10/11 08:11:29;;;;;;;7.53;6.60;;;;;;;12.60;100.00;94977.09;5072786;28;20448;-82
2021/10/11 08:13:55;;;;;;;7.73;5.60;;;;;;;12.62;100.00;94976.97;5037924;28;20808;-81
2021/10/11 08:16:24;;;;;;;58.80;28.57;;;;;;;13.75;100.00;94969.81;5072791;28;20581;-81
2021/10/11 08:18:51;;;;;;;18.03;12.23;;;;;;;15.11;100.00;94977.50;5072973;28;20450;-81
2021/10/11 08:21:18;;;;;;;8.40;6.40;;;;;;;15.30;100.00;94969.34;5073123;28;20429;-81
2021/10/11 08:23:45;;;;;;;8.50;6.07;;;;;;;16.03;100.00;94964.41;5072632;28;20442;-81
2021/10/11 08:26:12;;;;;;;6.57;5.73;;;;;;;16.68;97.74;94967.19;5073407;28;20811;-80
2021/10/11 08:28:40;;;;;;;7.93;5.67;;;;;;;17.12;90.18;94974.78;5072616;28;20480;-82
2021/10/11 08:31:06;;;;;;;10.73;5.67;;;;;;;17.44;87.84;94973.06;5072665;28;20441;-81
2021/10/11 08:33:35;;;;;;;13.50;5.90;;;;;;;17.73;85.25;94968.03;5075561;28;20456;-82
2021/10/11 08:36:02;;;;;;;8.33;6.30;;;;;;;18.26;100.00;94954.00;5076349;28;20532;-85
2021/10/11 08:38:29;;;;;;;9.20;4.90;;;;;;;18.62;100.00;94965.88;5075874;28;20444;-81
2021/10/11 08:40:56;;;;;;;5.37;4.30;;;;;;;18.82;100.00;94959.94;5057336;28;20453;-85
2021/10/11 08:43:23;;;;;;;4.40;3.77;;;;;;;18.86;89.45;94966.56;5057517;28;20452;-86
2021/10/11 08:45:51;;;;;;;5.53;4.50;;;;;;;18.43;77.90;94970.63;5075757;28;20788;-87
2021/10/11 08:48:18;;;;;;;60.50;11.17;;;;;;;18.00;78.67;94965.94;5075866;28;20546;-81
2021/10/11 08:50:46;;;;;;;20.07;4.77;;;;;;;17.50;78.81;94957.28;5076711;28;20451;-81
2021/10/11 08:53:15;;;;;;;8.50;4.37;;;;;;;17.06;80.79;94958.69;5076724;28;20548;-81
2021/10/11 08:55:42;;;;;;;6.83;4.87;;;;;;;16.61;82.45;94960.03;5076284;28;20445;-81
2021/10/11 08:58:09;;;;;;;5.93;5.43;;;;;;;16.11;85.42;94956.47;5075534;28;20955;-81
2021/10/11 09:00:37;;;;;;;4.63;3.80;;;;;;;15.73;87.27;94946.44;5074967;28;20923;-80
2021/10/11 09:03:05;;;;;;;9.73;4.87;;;;;;;15.38;89.16;94955.38;5075180;28;20429;-81
2021/10/11 09:05:34;;;;;;;8.20;5.43;;;;;;;15.13;90.48;94949.13;5074826;28;20433;-80
2021/10/11 09:08:05;;;;;;;10.73;5.27;;;;;;;14.83;92.21;94945.94;5074801;28;20481;-81
2021/10/11 09:10:33;;;;;;;7.97;5.20;;;;;;;14.69;94.15;94946.50;5074959;28;20451;-80
2021/10/11 09:13:00;;;;;;;11.00;6.80;;;;;;;14.53;94.92;94951.66;5074896;28;20468;-80
2021/10/11 09:15:30;;;;;;;5.97;4.50;;;;;;;14.43;96.83;94958.81;5056005;28;20441;-80
2021/10/11 09:18:01;;;;;;;7.70;5.37;;;;;;;14.33;97.93;94958.88;5074502;28;20886;-81
2021/10/11 09:20:29;;;;;;;7.37;5.23;;;;;;;14.24;98.81;94955.34;5074905;28;20456;-80
2021/10/11 09:22:57;;;;;;;5.33;4.10;;;;;;;14.16;99.26;94957.88;5074821;28;20541;-81
2021/10/11 09:25:35;;;;;;;15.47;12.30;;;;;;;13.84;99.67;94952.28;5074717;28;20441;-80
2021/10/11 09:28:03;;;;;;;9.87;8.13;;;;;;;13.85;99.50;94943.38;5074657;28;20869;-80
2021/10/11 09:30:32;;;;;;;12.37;9.17;;;;;;;13.69;99.34;94937.94;5074996;28;20873;-80
2021/10/11 09:33:10;;;;;;;14.20;9.43;;;;;;;13.53;100.00;94933.28;5075680;28;20895;-80
2021/10/11 09:35:38;;;;;;;17.43;11.00;;;;;;;13.29;100.00;94933.81;5075794;28;20449;-80
2021/10/11 09:38:17;;;;;;;16.80;8.70;;;;;;;13.10;100.00;94931.25;5075532;28;20441;-80
2021/10/11 09:40:47;;;;;;;9.43;7.90;;;;;;;12.95;100.00;94929.06;5075129;28;20445;-80
2021/10/11 09:43:15;;;;;;;8.80;7.80;;;;;;;12.85;100.00;94928.28;5075515;28;20444;-80
2021/10/11 09:45:42;;;;;;;8.60;7.20;;;;;;;13.06;100.00;94930.72;5075394;28;20834;-80
2021/10/11 09:48:10;;;;;;;9.80;6.20;;;;;;;13.14;100.00;94935.25;5075465;28;20492;-80
2021/10/11 09:50:37;;;;;;;10.67;7.33;;;;;;;13.03;100.00;94928.38;5074827;28;21000;-81
2021/10/11 09:53:05;;;;;;;7.83;7.00;;;;;;;13.10;100.00;94920.72;5075055;28;20460;-81
2021/10/11 09:55:33;;;;;;;9.87;6.40;;;;;;;13.15;100.00;94921.09;5074657;28;20441;-81
2021/10/11 09:58:01;;;;;;;11.23;6.93;;;;;;;13.06;100.00;94916.72;5075310;28;20477;-80
2021/10/11 10:00:29;;;;;;;8.47;5.90;;;;;;;12.97;100.00;94911.31;5056496;28;20807;-80
2021/10/11 10:02:56;;;;;;;9.30;6.40;;;;;;;13.05;100.00;94917.69;5074942;28;20452;-80
2021/10/11 10:05:27;;;;;;;6.43;5.80;;;;;;;12.85;100.00;94915.09;5074553;28;20450;-81
2021/10/11 10:07:56;;;;;;;6.57;5.97;;;;;;;12.81;100.00;94911.09;5074192;28;20481;-80
2021/10/11 10:10:26;;;;;;;12.93;5.70;;;;;;;12.93;100.00;94907.31;5074495;28;20528;-81
2021/10/11 10:12:54;;;;;;;8.23;6.40;;;;;;;12.89;100.00;94908.56;5074960;28;20866;-81
2021/10/11 10:15:31;;;;;;;6.40;5.80;;;;;;;12.78;100.00;94903.50;5074743;28;20452;-80
2021/10/11 10:18:03;;;;;;;10.13;7.40;;;;;;;12.54;100.00;94908.41;5074183;28;20455;-80
2021/10/11 10:20:31;;;;;;;9.50;7.60;;;;;;;12.54;100.00;94903.97;5075042;28;20524;-81
2021/10/11 10:22:59;;;;;;;8.70;7.57;;;;;;;12.51;100.00;94901.63;5055905;28;20440;-81
2021/10/11 10:25:26;;;;;;;8.90;6.80;;;;;;;12.61;100.00;94904.22;5074264;28;20935;-81
2021/10/11 10:27:55;;;;;;;11.47;8.70;;;;;;;12.66;100.00;94896.72;5074007;28;20828;-79
2021/10/11 10:30:23;;;;;;;8.80;7.13;;;;;;;12.62;100.00;94897.97;5075374;28;20448;-80
2021/10/11 10:32:57;;;;;;;8.00;6.67;;;;;;;12.57;100.00;94902.84;5074542;28;20528;-81
2021/10/11 10:35:25;;;;;;;6.90;6.23;;;;;;;12.56;100.00;94896.75;5074204;28;20921;-81
2021/10/11 10:37:52;;;;;;;7.93;5.90;;;;;;;12.41;100.00;94892.88;5039186;28;20480;-81
2021/10/11 10:40:21;;;;;;;7.70;6.47;;;;;;;12.43;100.00;94888.31;5074040;28;20451;-80
2021/10/11 10:42:48;;;;;;;7.30;6.60;;;;;;;12.44;100.00;94890.00;5074224;28;21015;-81
2021/10/11 10:45:20;;;;;;;11.60;9.63;;;;;;;12.26;100.00;94883.78;5074144;28;20456;-80
2021/10/11 10:47:49;;;;;;;8.83;7.43;;;;;;;12.44;100.00;94876.84;5073649;28;20452;-80
2021/10/11 10:50:20;;;;;;;6.43;5.53;;;;;;;12.48;100.00;94882.66;5073734;28;20978;-80
2021/10/11 10:52:48;;;;;;;6.10;5.50;;;;;;;12.61;100.00;94878.72;5074110;28;20520;-80
2021/10/11 10:55:16;;;;;;;5.90;5.37;;;;;;;12.75;100.00;94880.09;5054415;28;20920;-80
2021/10/11 10:57:44;;;;;;;7.43;5.40;;;;;;;12.88;100.00;94872.69;5073502;28;20540;-81
2021/10/11 11:00:16;;;;;;;5.83;5.30;;;;;;;12.90;100.00;94878.63;5073335;28;20528;-80
2021/10/11 11:02:45;;;;;;;5.53;4.93;;;;;;;12.98;100.00;94873.47;5055216;28;20449;-80
2021/10/11 11:05:13;;;;;;;9.80;5.97;;;;;;;12.96;100.00;94874.59;5073958;28;20506;-80
2021/10/11 11:07:43;;;;;;;6.47;5.87;;;;;;;12.95;100.00;94870.28;5074143;28;20465;-81
2021/10/11 11:10:12;;;;;;;7.40;6.10;;;;;;;12.77;100.00;94864.97;5073432;28;20449;-80
2021/10/11 11:12:41;;;;;;;7.63;6.80;;;;;;;12.81;100.00;94862.88;5073959;28;20448;-81
2021/10/11 11:15:11;;;;;;;6.17;5.53;;;;;;;12.60;100.00;94861.28;5054719;28;20976;-80
2021/10/11 11:17:39;;;;;;;7.30;6.10;;;;;;;12.54;100.00;94861.00;5073561;28;20931;-80
2021/10/11 11:20:15;;;;;;;6.60;6.00;;;;;;;12.62;100.00;94855.84;5073464;28;20442;-80
2021/10/11 11:22:43;;;;;;;6.53;5.80;;;;;;;12.63;100.00;94850.44;5073251;28;20939;-80
2021/10/11 11:25:10;;;;;;;9.20;6.30;;;;;;;12.53;100.00;94849.66;5073201;28;20847;-80
2021/10/11 11:27:39;;;;;;;9.20;6.50;;;;;;;12.53;100.00;94839.13;5073844;28;20452;-80
2021/10/11 11:30:08;;;;;;;7.23;5.60;;;;;;;12.46;100.00;94842.47;5072920;28;20476;-79
2021/10/11 11:32:45;;;;;;;7.10;6.10;;;;;;;12.55;100.00;94839.81;5073441;28;20448;-81
2021/10/11 11:35:17;;;;;;;6.27;5.67;;;;;;;12.54;100.00;94839.97;5071855;28;20437;-80
2021/10/11 11:37:47;;;;;;;7.83;5.93;;;;;;;12.51;100.00;94840.25;5073352;28;20445;-81
2021/10/11 11:40:17;;;;;;;8.33;6.50;;;;;;;12.49;100.00;94840.41;5073492;28;20447;-81
2021/10/11 11:42:46;;;;;;;6.33;4.80;;;;;;;12.39;100.00;94836.94;5073415;28;20847;-81
2021/10/11 11:45:13;;;;;;;6.97;5.80;;;;;;;12.44;100.00;94840.00;5073559;28;20452;-80
2021/10/11 11:47:40;;;;;;;8.13;6.80;;;;;;;12.51;100.00;94841.06;5038009;28;20444;-81
2021/10/11 11:50:17;;;;;;;6.10;5.53;;;;;;;12.60;100.00;94839.38;5073381;28;20487;-81
2021/10/11 11:52:47;;;;;;;8.10;5.40;;;;;;;12.52;100.00;94837.47;5073547;28;20812;-80
2021/10/11 11:55:15;;;;;;;10.43;6.33;;;;;;;12.75;100.00;94831.88;5073426;28;20449;-81
2021/10/11 11:57:43;;;;;;;9.10;6.30;;;;;;;12.77;100.00;94829.91;5073063;28;20947;-81
2021/10/11 12:00:12;;;;;;;6.80;5.20;;;;;;;12.71;100.00;94823.41;5072852;28;20452;-80
2021/10/11 12:02:44;;;;;;;7.93;5.40;;;;;;;12.59;100.00;94827.19;5073411;28;20476;-80
2021/10/11 12:05:11;;;;;;;9.03;6.70;;;;;;;12.71;100.00;94828.66;5073235;28;20533;-81
2021/10/11 12:07:42;;;;;;;6.17;5.57;;;;;;;12.89;100.00;94824.28;5073770;28;20441;-82
2021/10/11 12:10:12;;;;;;;7.70;5.57;;;;;;;12.87;100.00;94828.06;5076948;28;20553;-81
2021/10/11 12:12:40;;;;;;;6.20;5.60;;;;;;;12.96;100.00;94825.38;5076427;28;20777;-79
2021/10/11 12:15:18;;;;;;;8.60;6.80;;;;;;;12.88;100.00;94819.19;5075852;28;20448;-79
2021/10/11 12:17:45;;;;;;;8.00;5.70;;;;;;;12.85;100.00;94807.13;5075757;28;20451;-80
2021/10/11 12:20:12;;;;;;;5.97;5.40;;;;;;;12.80;100.00;94804.13;5056956;28;20443;-80
2021/10/11 12:22:40;;;;;;;5.73;5.10;;;;;;;12.75;100.00;94809.00;5076097;28;20455;-81
2021/10/11 12:25:09;;;;;;;5.40;5.00;;;;;;;12.65;100.00;94811.66;5075669;28;20451;-81
2021/10/11 12:27:36;;;;;;;7.03;5.13;;;;;;;12.64;100.00;94796.81;5075567;28;20445;-80
2021/10/11 12:30:09;;;;;;;6.73;4.10;;;;;;;12.71;100.00;94800.53;5075630;28;20481;-81
2021/10/11 12:32:38;;;;;;;5.77;5.20;;;;;;;12.66;100.00;94808.03;5075945;28;20441;-81
2021/10/11 12:35:07;;;;;;;6.10;5.50;;;;;;;12.74;100.00;94794.16;5075672;28;20449;-81
2021/10/11 12:37:40;;;;;;;7.73;5.40;;;;;;;12.76;100.00;94802.75;5040840;28;20448;-81
2021/10/11 12:40:08;;;;;;;4.90;4.37;;;;;;;12.71;100.00;94789.16;5074893;28;20448;-81
2021/10/11 12:42:43;;;;;;;4.60;4.20;;;;;;;12.91;100.00;94792.53;5041675;28;20453;-81
2021/10/11 12:45:14;;;;;;;4.72;4.32;;;;;;;13.06;100.00;94793.72;5076157;28;20401;-81
2021/10/11 12:47:42;;;;;;;6.03;4.70;;;;;;;13.21;100.00;94796.72;5041314;28;20238;-81
2021/10/11 12:50:12;;;;;;;4.60;4.20;;;;;;;13.32;100.00;94791.25;5040697;28;20484;-81
2021/10/11 12:52:40;;;;;;;6.20;5.07;;;;;;;13.46;100.00;94781.97;5075982;28;20507;-80
2021/10/11 12:55:11;;;;;;;6.03;4.10;;;;;;;13.47;100.00;94778.34;5076024;28;20991;-81
2021/10/11 12:57:39;;;;;;;5.10;4.20;;;;;;;13.58;100.00;94780.75;5076343;28;20522;-81
2021/10/11 13:00:08;;;;;;;5.10;4.70;;;;;;;13.68;100.00;94772.78;5076373;28;20452;-80
2021/10/11 13:02:38;;;;;;;7.30;4.50;;;;;;;13.77;100.00;94771.88;5076308;28;20448;-81
2021/10/11 13:05:07;;;;;;;4.83;4.43;;;;;;;13.79;99.38;94769.91;5076297;28;20480;-81
2021/10/11 13:07:35;;;;;;;14.90;10.97;;;;;;;13.89;100.00;94765.41;5075876;28;20441;-81
2021/10/11 13:10:02;;;;;;;20.40;16.00;;;;;;;14.00;99.56;94766.94;5075637;28;20485;-81
2021/10/11 13:12:29;;;;;;;8.80;7.90;;;;;;;14.06;99.08;94759.22;5073990;28;20433;-81
2021/10/11 13:14:56;;;;;;;5.80;5.23;;;;;;;14.08;98.12;94762.53;5075901;28;20447;-81
2021/10/11 13:17:23;;;;;;;5.37;4.87;;;;;;;14.16;98.60;94759.94;5075437;28;20445;-81
2021/10/11 13:19:51;;;;;;;4.97;4.47;;;;;;;14.24;97.95;94761.84;5074862;28;20445;-81
2021/10/11 13:22:18;;;;;;;7.20;5.87;;;;;;;14.27;98.12;94758.88;5075546;28;20532;-82
2021/10/11 13:24:45;;;;;;;5.73;5.20;;;;;;;14.29;98.09;94753.44;5075860;28;20433;-81
2021/10/11 13:27:12;;;;;;;10.10;6.50;;;;;;;14.26;97.87;94750.13;5075844;28;20460;-81
2021/10/11 13:41:42;;;;;;;5.40;4.10;;;;;;;14.17;97.76;94744.97;4995909;28;20440;-81
2021/10/11 14:28:02;;;;;;;7.73;4.50;;;;;;;14.34;98.22;94727.41;4973049;28;20445;-80
2021/10/11 14:30:41;;;;;;;5.70;5.20;;;;;;;14.34;97.80;94719.50;4972358;28;20487;-81
2021/10/11 15:58:29;;;;;;;7.43;6.27;;;;;;;12.43;100.00;94700.63;5072609;28;20516;-80
2021/10/11 16:01:03;;;;;;;10.00;6.67;;;;;;;12.48;100.00;94699.25;5072933;28;20476;-81
2021/10/11 16:03:55;;;;;;;10.07;8.87;;;;;;;12.41;100.00;94704.25;5072649;28;20444;-81
2021/10/11 16:06:28;;;;;;;9.03;7.70;;;;;;;12.48;100.00;94703.69;5073012;28;20528;-81
2021/10/11 16:08:56;;;;;;;8.80;7.90;;;;;;;12.17;100.00;94697.88;5073216;28;20817;-81
2021/10/11 16:11:22;;;;;;;8.57;7.20;;;;;;;12.20;100.00;94711.56;5073274;28;20468;-81
2021/10/11 16:13:50;;;;;;;12.93;11.53;;;;;;;12.03;100.00;94714.94;5073048;28;20453;-81
2021/10/11 16:16:17;;;;;;;13.27;11.97;;;;;;;11.99;100.00;94716.19;5072647;28;20441;-80
2021/10/11 16:18:45;;;;;;;7.50;6.77;;;;;;;12.05;100.00;94713.81;5072944;28;21020;-81
2021/10/11 16:21:12;;;;;;;12.60;11.33;;;;;;;11.98;100.00;94706.63;5072727;28;20776;-81
2021/10/11 16:23:40;;;;;;;12.30;9.63;;;;;;;11.99;100.00;94718.81;5072307;28;20468;-81
2021/10/11 16:26:08;;;;;;;12.40;10.37;;;;;;;11.86;100.00;94715.69;5072996;28;20806;-81